Time;durP1;ratioP1;P1;durP2;ratioP2;P2;SDS_P1;SDS_P2;PMS_P1;PMS_P2;Temp;Humidity;BMP_temperature;BMP_pressure;BME280_temperature;BME280_humidity;BME280_pressure;Samples;Min_cycle;Max_cycle;Signal;HPM_P1;HPM_P2
2022/03/03 00:00:49;;;;;;;7.13;2.30;;;;;;;-0.69;100.00;102328.09;4884503;29;20039;-78
2022/03/03 00:03:15;;;;;;;11.95;2.58;;;;;;;-0.71;100.00;102325.53;4882892;29;20033;-78
2022/03/03 00:05:40;;;;;;;10.70;2.40;;;;;;;-0.73;100.00;102332.72;4882688;29;20037;-78
2022/03/03 00:08:06;;;;;;;8.25;1.95;;;;;;;-0.89;100.00;102305.44;4884369;29;20025;-78
2022/03/03 00:10:31;;;;;;;12.65;2.03;;;;;;;-0.83;100.00;102325.38;4900253;29;20091;-78
2022/03/03 00:12:57;;;;;;;14.90;4.22;;;;;;;-0.83;100.00;102341.22;4900371;29;20569;-78
2022/03/03 00:15:22;;;;;;;20.83;6.30;;;;;;;-0.91;100.00;102317.03;4899201;29;20044;-79
2022/03/03 00:17:48;;;;;;;20.17;6.13;;;;;;;-0.83;100.00;102331.53;4885226;29;20044;-78
2022/03/03 00:20:13;;;;;;;17.42;5.20;;;;;;;-0.83;100.00;102335.94;4888077;29;20036;-78
2022/03/03 00:22:38;;;;;;;11.02;3.75;;;;;;;-0.83;100.00;102338.59;4883453;29;20047;-78
2022/03/03 00:25:05;;;;;;;12.27;3.22;;;;;;;-1.04;100.00;102304.53;4901782;29;20699;-79
2022/03/03 00:27:30;;;;;;;15.75;3.17;;;;;;;-0.84;100.00;102343.03;4902245;29;20039;-78
2022/03/03 00:29:56;;;;;;;108.47;6.15;;;;;;;-0.85;100.00;102341.31;4900402;29;20041;-78
2022/03/03 00:32:22;;;;;;;37.85;4.50;;;;;;;-0.98;100.00;102311.25;4900243;29;20119;-78
2022/03/03 00:34:47;;;;;;;24.73;6.25;;;;;;;-0.81;100.00;102342.84;4904150;29;20039;-78
2022/03/03 00:37:13;;;;;;;39.78;6.10;;;;;;;-0.82;100.00;102348.25;4888774;29;20115;-79
2022/03/03 00:39:38;;;;;;;18.17;5.18;;;;;;;-0.84;100.00;102355.38;4884554;29;20474;-78
2022/03/03 00:42:05;;;;;;;37.60;5.20;;;;;;;-0.85;100.00;102354.53;4889494;29;20453;-78
2022/03/03 00:44:30;;;;;;;40.45;5.20;;;;;;;-0.94;100.00;102344.47;4884483;29;20033;-79
2022/03/03 00:46:56;;;;;;;24.75;5.40;;;;;;;-0.95;100.00;102364.78;4897457;29;20348;-79
2022/03/03 00:49:21;;;;;;;12.98;3.50;;;;;;;-0.99;100.00;102354.47;4883230;29;20021;-78
2022/03/03 00:51:47;;;;;;;12.95;3.17;;;;;;;-1.03;100.00;102356.41;4882835;29;20465;-78
2022/03/03 00:54:12;;;;;;;14.00;3.70;;;;;;;-1.07;100.00;102359.31;4881477;29;20124;-78
2022/03/03 00:56:37;;;;;;;13.02;3.63;;;;;;;-1.19;100.00;102355.59;4881295;29;20111;-79
2022/03/03 00:59:03;;;;;;;11.27;3.92;;;;;;;-1.19;100.00;102350.31;4899797;29;20037;-78
2022/03/03 01:01:29;;;;;;;8.57;3.67;;;;;;;-1.13;100.00;102357.84;4900611;29;20060;-78
2022/03/03 01:03:54;;;;;;;8.45;3.65;;;;;;;-1.17;100.00;102339.63;4882349;29;20479;-78
2022/03/03 01:06:20;;;;;;;8.68;3.35;;;;;;;-1.11;100.00;102360.44;4892350;29;20100;-79
2022/03/03 01:08:45;;;;;;;8.25;3.17;;;;;;;-1.10;100.00;102348.91;4909654;29;20029;-79
2022/03/03 01:11:10;;;;;;;8.23;2.38;;;;;;;-1.24;100.00;102334.69;4901761;29;20417;-78
2022/03/03 01:13:36;;;;;;;6.65;2.75;;;;;;;-1.19;100.00;102350.31;4881891;29;20068;-78
2022/03/03 01:16:02;;;;;;;10.30;2.58;;;;;;;-1.37;100.00;102336.31;4882699;29;20037;-78
2022/03/03 01:18:28;;;;;;;8.75;2.80;;;;;;;-1.41;100.00;102337.41;4882167;29;20088;-78
2022/03/03 01:20:56;;;;;;;7.28;2.97;;;;;;;-1.31;100.00;102349.19;4884314;29;20570;-78
2022/03/03 01:23:22;;;;;;;7.72;2.65;;;;;;;-1.27;100.00;102357.78;4882551;29;20134;-78
2022/03/03 01:25:48;;;;;;;9.18;3.20;;;;;;;-1.22;100.00;102350.47;4881612;29;20459;-79
2022/03/03 01:28:13;;;;;;;6.95;3.20;;;;;;;-1.06;100.00;102350.44;4882089;29;20060;-78
2022/03/03 01:30:39;;;;;;;8.32;3.35;;;;;;;-0.97;100.00;102353.44;4882890;29;20354;-78
2022/03/03 01:33:05;;;;;;;11.27;3.92;;;;;;;-1.00;100.00;102345.66;4881935;29;20451;-78
2022/03/03 01:35:30;;;;;;;9.77;3.95;;;;;;;-0.78;100.00;102350.59;4880604;29;20029;-78
2022/03/03 01:37:56;;;;;;;6.95;3.90;;;;;;;-0.72;100.00;102346.78;4884440;29;20044;-80
2022/03/03 01:40:22;;;;;;;7.75;3.45;;;;;;;-0.70;100.00;102355.44;4882907;29;20037;-78
2022/03/03 01:42:49;;;;;;;11.00;3.85;;;;;;;-0.73;100.00;102361.78;4879588;29;20037;-78
2022/03/03 01:45:15;;;;;;;9.38;4.32;;;;;;;-0.73;100.00;102352.97;4900512;29;20518;-78
2022/03/03 01:47:41;;;;;;;8.18;4.60;;;;;;;-0.76;100.00;102345.25;4901448;29;20032;-78
2022/03/03 01:50:06;;;;;;;10.52;4.63;;;;;;;-0.76;100.00;102350.53;4886653;29;20081;-77
2022/03/03 01:52:32;;;;;;;14.25;5.20;;;;;;;-0.76;100.00;102351.38;4894629;29;20124;-78
2022/03/03 01:54:58;;;;;;;8.30;4.38;;;;;;;-0.82;100.00;102349.09;4896579;29;20036;-78
2022/03/03 01:57:24;;;;;;;11.85;5.72;;;;;;;-0.80;100.00;102351.63;4894127;29;20033;-78
2022/03/03 01:59:49;;;;;;;12.07;5.50;;;;;;;-0.88;100.00;102328.28;4896843;29;20039;-78
2022/03/03 02:02:15;;;;;;;10.40;5.00;;;;;;;-0.74;100.00;102352.13;4896904;29;20047;-78
2022/03/03 02:04:40;;;;;;;15.55;5.60;;;;;;;-0.71;100.00;102356.38;4898679;29;20032;-78
2022/03/03 02:07:07;;;;;;;8.50;5.13;;;;;;;-0.70;100.00;102352.81;4898188;29;20435;-78
2022/03/03 02:09:34;;;;;;;12.57;4.65;;;;;;;-0.83;100.00;102338.59;4898108;29;20407;-78
2022/03/03 02:12:00;;;;;;;12.48;4.97;;;;;;;-0.79;100.00;102354.19;4899240;29;20423;-78
2022/03/03 02:14:25;;;;;;;15.30;5.80;;;;;;;-0.84;100.00;102361.53;4899586;29;20125;-78
2022/03/03 02:16:51;;;;;;;11.82;6.30;;;;;;;-0.82;100.00;102350.88;4896288;29;20160;-78
2022/03/03 02:19:18;;;;;;;15.88;7.35;;;;;;;-0.79;100.00;102354.19;4896419;29;20040;-78
2022/03/03 02:21:48;;;;;;;14.35;6.80;;;;;;;-0.75;100.00;102362.81;4889692;29;20107;-78
2022/03/03 02:24:14;;;;;;;13.60;7.68;;;;;;;-0.85;100.00;102340.47;4897905;29;20044;-78
2022/03/03 02:26:40;;;;;;;17.27;7.30;;;;;;;-0.86;100.00;102341.41;4895013;29;20119;-78
2022/03/03 02:29:06;;;;;;;13.05;6.00;;;;;;;-0.73;100.00;102345.91;4898901;29;20423;-77
2022/03/03 02:31:32;;;;;;;12.50;6.13;;;;;;;-0.69;100.00;102343.94;4880700;29;20036;-78
2022/03/03 02:33:58;;;;;;;12.15;5.38;;;;;;;-0.71;100.00;102337.88;4889444;29;20051;-77
2022/03/03 02:36:29;;;;;;;14.25;5.15;;;;;;;-0.70;100.00;102350.16;4880447;29;20093;-78
2022/03/03 02:38:57;;;;;;;12.77;4.72;;;;;;;-0.77;100.00;102357.59;4883313;29;20032;-78
2022/03/03 02:41:24;;;;;;;11.60;5.07;;;;;;;-0.82;100.00;102358.81;4899757;29;20055;-78
2022/03/03 02:43:50;;;;;;;12.32;4.88;;;;;;;-0.89;100.00;102347.72;4896724;29;20043;-78
2022/03/03 02:46:15;;;;;;;11.73;4.18;;;;;;;-0.97;100.00;102332.28;4881091;29;20020;-78
2022/03/03 02:48:41;;;;;;;9.23;4.15;;;;;;;-0.91;100.00;102338.19;4881578;29;20032;-78
2022/03/03 02:51:07;;;;;;;11.27;3.85;;;;;;;-0.96;100.00;102336.66;4885903;29;20068;-78
2022/03/03 02:53:33;;;;;;;7.03;3.42;;;;;;;-1.04;100.00;102327.44;4903168;29;20035;-78
2022/03/03 02:55:59;;;;;;;10.93;3.70;;;;;;;-1.09;100.00;102338.28;4897664;29;20392;-77
2022/03/03 02:58:25;;;;;;;6.82;2.80;;;;;;;-1.03;100.00;102343.19;4897735;29;20139;-78
2022/03/03 03:00:51;;;;;;;10.75;3.15;;;;;;;-0.98;100.00;102333.25;4878460;29;20025;-78
2022/03/03 03:03:18;;;;;;;9.98;2.95;;;;;;;-0.91;100.00;102343.47;4880659;29;20072;-78
2022/03/03 03:05:45;;;;;;;6.90;2.67;;;;;;;-0.86;100.00;102346.69;4879518;29;20556;-78
2022/03/03 03:08:11;;;;;;;8.30;2.58;;;;;;;-0.84;100.00;102340.38;4880343;29;20461;-78
2022/03/03 03:10:37;;;;;;;9.23;2.30;;;;;;;-0.80;100.00;102341.06;4879118;29;20096;-78
2022/03/03 03:13:04;;;;;;;5.50;2.10;;;;;;;-0.76;100.00;102337.31;4894965;29;20041;-78
2022/03/03 03:15:31;;;;;;;9.88;2.63;;;;;;;-0.82;100.00;102324.44;4899814;29;20418;-78
2022/03/03 03:18:08;;;;;;;9.98;2.75;;;;;;;-0.75;100.00;102341.66;4899402;29;20032;-78
2022/03/03 03:20:34;;;;;;;9.50;2.83;;;;;;;-0.80;100.00;102348.97;4898678;29;20116;-78
2022/03/03 03:22:59;;;;;;;8.18;2.20;;;;;;;-0.78;100.00;102345.31;4881256;29;20120;-78
2022/03/03 03:25:24;;;;;;;6.03;2.33;;;;;;;-0.75;100.00;102344.28;4882025;29;20083;-78
2022/03/03 03:27:50;;;;;;;6.38;1.90;;;;;;;-0.83;100.00;102322.72;4896478;29;20151;-78
2022/03/03 03:30:15;;;;;;;5.88;2.20;;;;;;;-0.78;100.00;102323.31;4897790;29;20042;-78
2022/03/03 03:32:41;;;;;;;5.65;2.08;;;;;;;-0.71;100.00;102337.88;4895264;29;20040;-78
2022/03/03 03:35:07;;;;;;;9.07;2.28;;;;;;;-0.76;100.00;102345.25;4880328;29;20428;-78
2022/03/03 03:37:32;;;;;;;6.07;2.00;;;;;;;-0.80;100.00;102333.97;4882373;29;20120;-78
2022/03/03 03:39:58;;;;;;;4.28;2.00;;;;;;;-0.76;100.00;102332.88;4881633;29;20044;-77
2022/03/03 03:42:24;;;;;;;4.20;1.73;;;;;;;-0.76;100.00;102342.59;4880546;29;20100;-78
2022/03/03 03:44:50;;;;;;;5.20;1.85;;;;;;;-0.86;100.00;102328.19;4879127;29;20033;-78
2022/03/03 03:47:16;;;;;;;5.88;1.75;;;;;;;-0.89;100.00;102328.34;4880713;29;20035;-78
2022/03/03 03:49:41;;;;;;;4.78;1.60;;;;;;;-0.98;100.00;102317.38;4882640;29;20064;-78
2022/03/03 03:52:07;;;;;;;10.32;1.80;;;;;;;-0.98;100.00;102327.09;4898152;29;20040;-78
2022/03/03 03:54:32;;;;;;;5.47;1.60;;;;;;;-0.95;100.00;102325.13;4899438;29;20514;-79
2022/03/03 03:56:58;;;;;;;4.97;1.42;;;;;;;-0.89;100.00;102329.22;4894788;29;20033;-79
2022/03/03 03:59:23;;;;;;;5.85;1.70;;;;;;;-0.97;100.00;102321.72;4881252;29;20029;-78
2022/03/03 04:01:50;;;;;;;5.95;1.70;;;;;;;-0.81;100.00;102336.72;4884344;29;20055;-78
2022/03/03 04:04:16;;;;;;;3.88;1.52;;;;;;;-0.74;100.00;102336.25;4881347;29;20032;-78
2022/03/03 04:06:41;;;;;;;4.03;1.27;;;;;;;-0.77;100.00;102330.31;4884223;29;20482;-78
2022/03/03 04:09:07;;;;;;;3.13;1.10;;;;;;;-0.71;100.00;102341.38;4881973;29;20060;-78
2022/03/03 04:11:32;;;;;;;4.65;1.42;;;;;;;-0.68;100.00;102342.16;4882652;29;20097;-78
2022/03/03 04:13:58;;;;;;;6.60;1.40;;;;;;;-0.75;100.00;102309.94;4883511;29;20089;-78
2022/03/03 04:16:24;;;;;;;4.85;1.33;;;;;;;-0.71;100.00;102309.66;4881666;29;20029;-79
2022/03/03 04:18:50;;;;;;;8.07;1.38;;;;;;;-0.56;100.00;102329.09;4884071;29;20428;-78
2022/03/03 04:21:15;;;;;;;4.88;1.30;;;;;;;-0.57;100.00;102324.72;4882988;29;20060;-78
2022/03/03 04:23:41;;;;;;;4.82;1.35;;;;;;;-0.48;100.00;102325.97;4882510;29;20061;-78
2022/03/03 04:26:06;;;;;;;5.72;1.30;;;;;;;-0.47;100.00;102325.88;4882836;29;20068;-78
2022/03/03 04:28:32;;;;;;;4.82;1.20;;;;;;;-0.58;100.00;102306.31;4901437;29;20112;-78
2022/03/03 04:30:57;;;;;;;4.47;1.17;;;;;;;-0.50;100.00;102334.00;4900031;29;20100;-78
2022/03/03 04:33:23;;;;;;;5.50;1.25;;;;;;;-0.64;100.00;102307.50;4883793;29;20123;-79
2022/03/03 04:35:48;;;;;;;3.55;0.70;;;;;;;-0.57;100.00;102316.78;4899962;29;20447;-78
2022/03/03 04:38:13;;;;;;;2.80;0.90;;;;;;;-0.40;100.00;102330.81;4898923;29;20036;-79
2022/03/03 04:40:39;;;;;;;2.05;0.98;;;;;;;-0.38;100.00;102334.22;4897961;29;20100;-78
2022/03/03 04:43:04;;;;;;;5.88;0.90;;;;;;;-0.26;100.00;102341.44;4896284;29;20044;-78
2022/03/03 04:45:30;;;;;;;4.20;0.80;;;;;;;-0.29;100.00;102329.25;4895472;29;20064;-78
2022/03/03 04:47:55;;;;;;;5.25;0.95;;;;;;;-0.18;100.00;102335.69;4890855;29;20347;-78
2022/03/03 04:50:21;;;;;;;5.18;1.15;;;;;;;-0.10;100.00;102352.81;4900448;29;20108;-78
2022/03/03 04:52:46;;;;;;;8.43;1.20;;;;;;;-0.03;100.00;102338.28;4898300;29;20578;-78
2022/03/03 04:55:12;;;;;;;3.47;1.02;;;;;;;-0.04;100.00;102335.69;4899581;29;20025;-79
2022/03/03 04:57:37;;;;;;;3.78;0.85;;;;;;;-0.08;100.00;102342.13;4900334;29;20056;-79
2022/03/03 05:00:05;;;;;;;6.85;1.10;;;;;;;-0.10;100.00;102341.34;4898893;29;20039;-78
2022/03/03 05:02:31;;;;;;;4.78;1.08;;;;;;;-0.27;100.00;102329.97;4899805;29;20033;-78
2022/03/03 05:04:56;;;;;;;3.78;0.93;;;;;;;-0.25;100.00;102343.13;4894955;29;20041;-79
2022/03/03 05:07:23;;;;;;;4.47;1.02;;;;;;;-0.30;100.00;102326.66;4903003;29;20028;-79
2022/03/03 05:09:48;;;;;;;6.13;1.17;;;;;;;-0.23;100.00;102333.31;4870868;29;20033;-79
2022/03/03 05:12:14;;;;;;;4.07;0.88;;;;;;;-0.39;100.00;102309.56;4894967;29;20047;-79
2022/03/03 05:14:39;;;;;;;2.72;0.80;;;;;;;-0.27;100.00;102334.44;4890705;29;20037;-79
2022/03/03 05:17:04;;;;;;;2.53;0.60;;;;;;;-0.24;100.00;102336.91;4895361;29;20032;-78
2022/03/03 05:19:31;;;;;;;4.63;1.15;;;;;;;-0.29;100.00;102331.03;4892583;29;20029;-79
2022/03/03 05:21:57;;;;;;;3.22;0.73;;;;;;;-0.34;100.00;102327.81;4891507;29;20115;-78
2022/03/03 05:24:22;;;;;;;4.85;1.27;;;;;;;-0.49;100.00;102311.06;4882939;29;20119;-79
2022/03/03 05:26:48;;;;;;;4.53;0.70;;;;;;;-0.50;100.00;102318.16;4892434;29;20375;-78
2022/03/03 05:29:14;;;;;;;2.83;1.00;;;;;;;-0.41;100.00;102321.19;4881641;29;20053;-79
2022/03/03 05:31:41;;;;;;;3.88;1.00;;;;;;;-0.43;100.00;102317.75;4899968;29;20036;-78
2022/03/03 05:34:07;;;;;;;4.75;0.95;;;;;;;-0.44;100.00;102316.06;4895412;29;20136;-79
2022/03/03 05:36:39;;;;;;;2.70;0.90;;;;;;;-0.56;100.00;102318.50;4895785;29;20132;-78
2022/03/03 05:39:05;;;;;;;7.38;1.00;;;;;;;-0.50;100.00;102327.84;4886659;29;20033;-78
2022/03/03 05:41:30;;;;;;;6.85;1.20;;;;;;;-0.65;100.00;102310.25;4893238;29;20055;-78
2022/03/03 05:43:57;;;;;;;5.28;1.08;;;;;;;-0.59;100.00;102316.03;4896066;29;20483;-78
2022/03/03 05:46:23;;;;;;;5.32;1.00;;;;;;;-0.60;100.00;102324.88;4892160;29;20115;-79
2022/03/03 05:48:49;;;;;;;4.68;1.30;;;;;;;-0.60;100.00;102330.19;4896718;29;20028;-79
2022/03/03 05:51:15;;;;;;;5.97;1.20;;;;;;;-0.65;100.00;102334.91;4890556;29;20427;-79
2022/03/03 05:53:40;;;;;;;12.02;2.28;;;;;;;-0.68;100.00;102329.78;4894062;29;20100;-79
2022/03/03 05:56:09;;;;;;;6.03;1.13;;;;;;;-0.81;100.00;102307.66;4896152;29;20068;-78
2022/03/03 05:58:44;;;;;;;4.30;1.45;;;;;;;-0.75;100.00;102325.78;4874911;29;20033;-79
2022/03/03 06:01:11;;;;;;;4.43;1.40;;;;;;;-0.79;100.00;102332.22;4900380;29;20047;-78
2022/03/03 06:03:37;;;;;;;6.68;1.30;;;;;;;-0.82;100.00;102337.66;4896108;29;20036;-79
2022/03/03 06:06:16;;;;;;;9.65;1.50;;;;;;;-1.07;100.00;102304.69;4894909;29;20036;-79
2022/03/03 06:09:03;;;;;;;4.13;1.23;;;;;;;-0.89;100.00;102331.00;4894206;29;20107;-79
2022/03/03 06:11:29;;;;;;;4.25;1.20;;;;;;;-0.89;100.00;102331.00;4897417;29;20111;-79
2022/03/03 06:14:06;;;;;;;9.93;1.60;;;;;;;-0.91;100.00;102339.03;4899751;29;20049;-79
2022/03/03 06:16:32;;;;;;;5.38;1.60;;;;;;;-1.01;100.00;102325.47;4898851;29;20017;-78
2022/03/03 06:18:59;;;;;;;4.57;1.50;;;;;;;-0.92;100.00;102347.91;4892326;29;20507;-79
2022/03/03 06:21:24;;;;;;;8.88;1.73;;;;;;;-1.06;100.00;102324.91;4893310;29;20040;-79
2022/03/03 06:23:51;;;;;;;4.18;1.30;;;;;;;-0.91;100.00;102340.81;4876175;29;20033;-79
2022/03/03 06:26:19;;;;;;;6.40;1.80;;;;;;;-0.86;100.00;102341.41;4893297;29;20024;-79
2022/03/03 06:28:47;;;;;;;6.95;1.80;;;;;;;-0.91;100.00;102327.63;4895716;29;20108;-79
2022/03/03 06:31:14;;;;;;;9.35;1.90;;;;;;;-0.83;100.00;102346.50;4898926;29;20344;-79
2022/03/03 06:33:40;;;;;;;5.25;1.50;;;;;;;-0.94;100.00;102336.56;4885446;29;20475;-79
2022/03/03 06:36:06;;;;;;;5.07;1.55;;;;;;;-0.90;100.00;102355.72;4883509;29;20535;-79
2022/03/03 06:38:32;;;;;;;5.38;1.70;;;;;;;-0.83;100.00;102362.38;4885622;29;20166;-79
2022/03/03 06:40:57;;;;;;;5.30;1.83;;;;;;;-0.80;100.00;102362.19;4889654;29;20482;-79
2022/03/03 06:43:29;;;;;;;5.63;1.55;;;;;;;-0.75;100.00;102365.44;4885989;29;20029;-79
2022/03/03 06:45:57;;;;;;;8.60;2.13;;;;;;;-0.75;100.00;102363.66;4887822;29;20048;-79
2022/03/03 06:48:23;;;;;;;5.43;1.73;;;;;;;-0.72;100.00;102373.19;4891347;29;20036;-79
2022/03/03 06:50:53;;;;;;;4.97;1.63;;;;;;;-0.78;100.00;102362.97;4889688;29;20518;-79
2022/03/03 06:53:31;;;;;;;6.88;1.92;;;;;;;-0.72;100.00;102371.41;4895604;29;20029;-79
2022/03/03 06:56:10;;;;;;;6.18;1.63;;;;;;;-0.74;100.00;102348.63;4889491;29;20024;-79
2022/03/03 06:58:36;;;;;;;9.32;2.22;;;;;;;-0.65;100.00;102356.03;4891440;29;20127;-79
2022/03/03 07:01:08;;;;;;;10.52;2.17;;;;;;;-0.49;100.00;102367.44;4901827;29;20017;-79
2022/03/03 07:03:34;;;;;;;6.43;2.00;;;;;;;-0.65;100.00;102349.91;4896921;29;20040;-79
2022/03/03 07:06:01;;;;;;;8.85;2.13;;;;;;;-0.48;100.00;102374.41;4878392;29;20036;-79
2022/03/03 07:08:27;;;;;;;6.85;1.88;;;;;;;-0.44;100.00;102376.88;4892751;29;20041;-78
2022/03/03 07:10:53;;;;;;;7.07;1.70;;;;;;;-0.44;100.00;102376.88;4893276;29;20024;-78
2022/03/03 07:13:19;;;;;;;7.38;1.98;;;;;;;-0.27;100.00;102380.25;4890790;29;20036;-79
2022/03/03 07:15:50;;;;;;;6.90;2.00;;;;;;;-0.20;100.00;102367.50;4886476;29;20040;-78
2022/03/03 07:18:24;;;;;;;5.07;1.67;;;;;;;0.03;100.00;102378.53;4890568;29;20037;-79
2022/03/03 07:20:55;;;;;;;5.63;1.80;;;;;;;0.12;100.00;102372.69;4886907;29;20025;-79
2022/03/03 07:23:23;;;;;;;7.05;1.90;;;;;;;0.20;100.00;102381.88;4891957;29;20732;-79
2022/03/03 07:25:53;;;;;;;6.38;1.70;;;;;;;0.37;100.00;102386.13;4890414;29;20459;-79
2022/03/03 07:28:20;;;;;;;7.60;1.30;;;;;;;0.36;100.00;102375.63;4893732;29;20048;-79
2022/03/03 07:30:49;;;;;;;7.55;1.70;;;;;;;0.58;100.00;102393.69;4882295;29;20040;-81
2022/03/03 07:33:27;;;;;;;8.45;1.98;;;;;;;0.65;100.00;102400.31;4889494;29;20418;-79
2022/03/03 07:35:56;;;;;;;6.47;1.70;;;;;;;0.76;100.00;102399.63;4900513;29;20114;-79
2022/03/03 07:38:26;;;;;;;7.78;1.63;;;;;;;0.87;100.00;102392.72;4890028;29;20024;-80
2022/03/03 07:40:53;;;;;;;9.10;1.65;;;;;;;0.96;100.00;102393.06;4900981;29;20039;-80
2022/03/03 07:43:19;;;;;;;4.00;1.80;;;;;;;1.05;100.00;102379.25;4888829;29;20107;-79
2022/03/03 07:45:46;;;;;;;5.97;2.30;;;;;;;1.13;100.00;102390.22;4892730;29;20044;-79
2022/03/03 07:48:12;;;;;;;7.57;1.70;;;;;;;1.22;100.00;102391.41;4897344;29;20033;-79
2022/03/03 07:50:39;;;;;;;5.00;1.58;;;;;;;1.26;100.00;102404.38;4894616;29;20041;-80
2022/03/03 07:53:13;;;;;;;7.53;1.83;;;;;;;1.39;100.00;102389.38;4898654;29;20032;-79
2022/03/03 07:55:43;;;;;;;8.27;1.70;;;;;;;1.49;100.00;102396.72;4888578;29;20371;-79
2022/03/03 07:58:27;;;;;;;6.40;1.60;;;;;;;1.54;100.00;102395.47;4894435;29;20032;-79
2022/03/03 08:00:55;;;;;;;8.52;1.70;;;;;;;1.62;100.00;102394.94;4902030;29;20021;-79
2022/03/03 08:03:22;;;;;;;8.35;1.70;;;;;;;1.70;100.00;102397.13;4890631;29;20029;-79
2022/03/03 08:05:51;;;;;;;8.35;1.65;;;;;;;1.70;100.00;102379.38;4897738;29;20435;-79
2022/03/03 08:08:21;;;;;;;4.25;1.45;;;;;;;1.85;100.00;102407.56;4892743;29;20025;-79
2022/03/03 08:10:48;;;;;;;7.60;1.60;;;;;;;1.75;100.00;102382.56;4889867;29;20104;-79
2022/03/03 08:13:15;;;;;;;8.15;1.58;;;;;;;1.98;100.00;102404.91;4892863;29;20033;-79
2022/03/03 08:15:45;;;;;;;5.43;1.48;;;;;;;1.99;100.00;102397.81;4893776;29;20028;-79
2022/03/03 08:18:11;;;;;;;4.22;1.25;;;;;;;2.22;100.00;102402.41;4896037;29;20039;-80
2022/03/03 08:20:38;;;;;;;7.07;1.60;;;;;;;2.27;100.00;102408.22;4894241;29;20065;-79
2022/03/03 08:23:06;;;;;;;8.13;1.58;;;;;;;2.25;100.00;102402.19;4890701;29;20088;-79
2022/03/03 08:25:33;;;;;;;8.13;1.67;;;;;;;2.43;100.00;102409.84;4887058;29;20024;-79
2022/03/03 08:28:02;;;;;;;7.88;1.60;;;;;;;2.47;100.00;102403.34;4890265;29;20152;-79
2022/03/03 08:30:29;;;;;;;9.68;1.80;;;;;;;2.58;100.00;102406.97;4882976;29;20136;-79
2022/03/03 08:33:19;;;;;;;6.93;1.40;;;;;;;2.68;100.00;102388.56;4893102;29;20044;-80
2022/03/03 08:35:54;;;;;;;12.50;1.95;;;;;;;2.72;100.00;102395.34;4891427;29;20072;-80
2022/03/03 08:38:45;;;;;;;8.80;1.58;;;;;;;2.74;100.00;102405.88;4890700;29;20040;-79
2022/03/03 08:41:19;;;;;;;6.32;1.73;;;;;;;2.82;100.00;102387.59;4886704;29;20394;-80
2022/03/03 08:43:50;;;;;;;6.80;1.52;;;;;;;2.86;100.00;102393.53;4889507;29;20029;-79
2022/03/03 08:46:19;;;;;;;7.43;1.38;;;;;;;2.93;100.00;102392.13;4882732;29;20112;-79
2022/03/03 08:48:47;;;;;;;6.47;1.83;;;;;;;3.04;100.00;102395.69;4895140;29;20371;-79
2022/03/03 08:51:15;;;;;;;5.63;1.40;;;;;;;3.14;100.00;102397.69;4888769;29;20040;-80
2022/03/03 08:53:41;;;;;;;5.65;1.33;;;;;;;3.11;100.00;102398.75;4897183;29;20115;-79
2022/03/03 08:56:08;;;;;;;6.60;1.50;;;;;;;3.26;100.00;102402.97;4897155;29;20485;-79
2022/03/03 08:58:34;;;;;;;6.15;1.10;;;;;;;3.25;100.00;102401.28;4885615;29;20029;-79
2022/03/03 09:00:59;;;;;;;6.65;1.60;;;;;;;3.40;100.00;102401.09;4889014;29;20037;-80
2022/03/03 09:03:25;;;;;;;6.60;1.58;;;;;;;3.38;100.00;102387.06;4892296;29;20029;-79
2022/03/03 09:05:54;;;;;;;7.45;1.50;;;;;;;3.14;100.00;102328.53;4887375;29;20043;-80
2022/03/03 09:08:20;;;;;;;6.22;1.75;;;;;;;3.50;100.00;102378.16;4890194;29;20032;-79
2022/03/03 09:10:45;;;;;;;4.72;1.20;;;;;;;3.54;100.00;102379.63;4892259;29;20040;-80
2022/03/03 09:13:10;;;;;;;7.22;1.17;;;;;;;3.59;100.00;102366.84;4890702;29;20040;-79
2022/03/03 09:15:36;;;;;;;5.70;1.27;;;;;;;3.84;100.00;102396.94;4893217;29;20028;-79
2022/03/03 09:18:02;;;;;;;4.57;1.33;;;;;;;3.86;100.00;102382.53;4889828;29;20107;-79
2022/03/03 09:20:27;;;;;;;3.90;1.17;;;;;;;3.82;100.00;102388.22;4889319;29;20096;-79
2022/03/03 09:22:53;;;;;;;4.55;1.20;;;;;;;3.95;100.00;102392.50;4890021;29;20391;-79
2022/03/03 09:25:20;;;;;;;4.35;1.27;;;;;;;4.13;100.00;102398.22;4890887;29;20039;-79
2022/03/03 09:27:46;;;;;;;4.82;1.30;;;;;;;4.07;100.00;102401.34;4894263;29;20045;-80
2022/03/03 09:30:12;;;;;;;5.90;1.55;;;;;;;4.09;100.00;102404.75;4892821;29;20566;-80
2022/03/03 09:32:38;;;;;;;6.97;1.10;;;;;;;3.91;100.00;102391.03;4890424;29;20108;-79
2022/03/03 09:35:05;;;;;;;6.18;1.38;;;;;;;3.96;100.00;102396.84;4891444;29;20451;-80
2022/03/03 09:37:30;;;;;;;5.88;1.38;;;;;;;3.86;100.00;102395.84;4886580;29;20164;-80
2022/03/03 09:39:56;;;;;;;3.78;1.08;;;;;;;3.82;100.00;102402.38;4889961;29;20032;-80
2022/03/03 09:42:21;;;;;;;6.20;1.40;;;;;;;3.86;100.00;102400.34;4887512;29;20454;-80
2022/03/03 09:44:46;;;;;;;4.72;1.35;;;;;;;3.86;100.00;102385.19;4889894;29;20088;-80
2022/03/03 09:47:16;;;;;;;5.65;1.20;;;;;;;3.95;100.00;102397.81;4892619;29;20027;-79
2022/03/03 09:49:42;;;;;;;5.18;1.20;;;;;;;3.93;100.00;102390.91;4886309;29;20043;-79
2022/03/03 09:52:12;;;;;;;4.20;1.20;;;;;;;4.05;100.00;102389.97;4886339;29;20033;-80
2022/03/03 09:54:38;;;;;;;4.55;1.23;;;;;;;3.96;100.00;102372.03;4890420;29;20028;-80
2022/03/03 09:57:03;;;;;;;6.20;1.52;;;;;;;4.31;100.00;102384.47;4890320;29;20087;-79
2022/03/03 09:59:29;;;;;;;4.45;1.13;;;;;;;4.42;100.00;102387.97;4888152;29;20043;-79
2022/03/03 10:02:03;;;;;;;5.63;1.23;;;;;;;4.52;100.00;102398.75;4897289;29;20029;-80
2022/03/03 10:04:29;;;;;;;;;;;;;;;4.64;100.00;102403.13;4888900;29;20053;-80
2022/03/03 10:06:54;;;;;;;5.63;1.30;;;;;;;4.43;100.00;102376.34;4892968;29;19949;-81
2022/03/03 10:09:20;;;;;;;3.20;0.98;;;;;;;4.54;100.00;102394.19;4903376;29;20041;-80
2022/03/03 10:11:48;;;;;;;5.32;1.15;;;;;;;4.60;100.00;102391.03;4904828;29;20033;-80
2022/03/03 10:14:24;;;;;;;2.72;1.20;;;;;;;4.71;100.00;102398.16;4899130;29;20025;-80
2022/03/03 10:16:50;;;;;;;4.13;1.40;;;;;;;4.70;100.00;102376.00;4898959;29;20064;-79
2022/03/03 10:19:15;;;;;;;5.70;1.27;;;;;;;4.71;100.00;102371.50;4892217;29;20037;-79
2022/03/03 10:21:43;;;;;;;5.25;1.70;;;;;;;4.84;100.00;102393.56;4896367;29;20032;-78
2022/03/03 10:24:29;;;;;;;6.53;1.02;;;;;;;4.86;100.00;102388.09;4896246;29;20059;-79
2022/03/03 10:27:06;;;;;;;9.35;1.40;;;;;;;4.94;100.00;102389.19;4892630;29;20040;-78
2022/03/03 10:29:33;;;;;;;3.63;1.30;;;;;;;4.98;100.00;102387.09;4893147;29;20063;-78
2022/03/03 10:32:00;;;;;;;6.70;1.15;;;;;;;5.15;100.00;102391.91;4885893;29;20418;-78
2022/03/03 10:34:30;;;;;;;6.43;1.20;;;;;;;5.23;100.00;102393.09;4894115;29;20123;-77
2022/03/03 10:36:58;;;;;;;3.05;0.95;;;;;;;5.36;100.00;102394.69;4894325;29;20545;-78
2022/03/03 10:39:25;;;;;;;3.17;0.90;;;;;;;5.31;100.00;102391.53;4895318;29;20096;-79
2022/03/03 10:41:55;;;;;;;5.20;1.10;;;;;;;5.31;100.00;102398.69;4896304;29;20503;-78
2022/03/03 10:44:27;;;;;;;4.55;1.27;;;;;;;5.30;100.00;102372.97;4882223;29;20108;-79
2022/03/03 10:47:07;;;;;;;5.60;1.58;;;;;;;5.45;100.00;102393.06;4892931;29;20073;-79
2022/03/03 10:49:34;;;;;;;3.67;1.13;;;;;;;5.60;100.00;102410.50;4895427;29;20486;-78
2022/03/03 10:52:10;;;;;;;12.65;1.67;;;;;;;5.57;100.00;102405.41;4891066;29;20051;-79
2022/03/03 10:55:12;;;;;;;4.88;1.08;;;;;;;5.63;100.00;102402.22;4893754;29;20100;-78
2022/03/03 10:57:44;;;;;;;4.68;1.00;;;;;;;5.71;100.00;102403.41;4874706;29;20056;-78
2022/03/03 11:00:16;;;;;;;5.70;1.00;;;;;;;5.52;100.00;102391.56;4885220;29;20084;-79
2022/03/03 11:02:47;;;;;;;4.53;1.15;;;;;;;5.69;100.00;102389.31;4886169;29;20017;-79
2022/03/03 11:05:14;;;;;;;4.65;1.20;;;;;;;5.72;100.00;102407.75;4885880;29;20033;-79
2022/03/03 11:07:45;;;;;;;5.93;1.25;;;;;;;5.58;100.00;102400.91;4883872;29;20048;-79
2022/03/03 11:10:16;;;;;;;4.63;1.08;;;;;;;5.59;100.00;102387.41;4888388;29;20028;-79
2022/03/03 11:12:43;;;;;;;5.57;1.33;;;;;;;5.78;100.00;102409.91;4891473;29;20025;-79
2022/03/03 11:15:10;;;;;;;4.93;1.10;;;;;;;5.79;100.00;102406.25;4888468;29;20028;-79
2022/03/03 11:17:36;;;;;;;4.28;1.02;;;;;;;5.89;100.00;102408.06;4893798;29;20067;-80
2022/03/03 11:20:04;;;;;;;4.97;1.13;;;;;;;5.86;100.00;102391.41;4896974;29;20367;-79